createdAt,value
2023-01-01T00:00:27.021Z,61.43
2023-01-01T00:02:53.594Z,61.43
2023-01-01T00:05:20.087Z,61.49
2023-01-01T00:07:46.579Z,61.44
2023-01-01T00:10:13.047Z,61.67
2023-01-01T00:12:39.565Z,61.71
2023-01-01T00:15:06.886Z,61.74
2023-01-01T00:17:33.438Z,61.75
2023-01-01T00:19:59.904Z,61.80
2023-01-01T00:25:13.006Z,61.84
2023-01-01T00:27:40.447Z,61.77
2023-01-01T00:30:09.579Z,61.49
2023-01-01T00:32:36.337Z,61.58
2023-01-01T00:35:03.076Z,61.63
2023-01-01T00:37:29.752Z,61.42
2023-01-01T00:39:56.291Z,61.39
2023-01-01T00:42:23.000Z,61.36
2023-01-01T00:44:49.523Z,61.15
2023-01-01T00:47:15.973Z,60.42
2023-01-01T00:49:42.500Z,60.56
2023-01-01T00:52:08.992Z,60.69
2023-01-01T00:54:35.520Z,60.43
2023-01-01T00:57:02.087Z,60.27
2023-01-01T00:59:29.229Z,60.24
2023-01-01T01:01:56.313Z,60.39
2023-01-01T01:04:23.218Z,60.48
2023-01-01T01:06:49.883Z,60.26
2023-01-01T01:09:16.509Z,60.23
2023-01-01T01:11:43.142Z,60.25
2023-01-01T01:14:09.679Z,60.07
2023-01-01T01:16:36.370Z,60.09
2023-01-01T01:19:05.654Z,59.99
2023-01-01T01:21:34.034Z,60.34
2023-01-01T01:24:02.460Z,60.48
2023-01-01T01:26:31.623Z,60.21
2023-01-01T01:28:58.272Z,60.45
2023-01-01T01:31:28.429Z,59.96
2023-01-01T01:33:55.242Z,60.36
2023-01-01T01:36:22.167Z,60.33
2023-01-01T01:38:48.871Z,60.56
2023-01-01T01:41:27.340Z,60.37
2023-01-01T01:44:00.988Z,60.04
2023-01-01T01:46:41.418Z,60.39
2023-01-01T01:49:20.474Z,59.32
2023-01-01T01:51:47.911Z,60.45
2023-01-01T01:54:19.658Z,59.85
2023-01-01T01:56:54.267Z,59.88
2023-01-01T01:59:24.724Z,60.04
2023-01-01T02:01:52.432Z,60.27
2023-01-01T02:04:18.911Z,60.45
2023-01-01T02:06:45.835Z,60.25
2023-01-01T02:09:13.262Z,60.53
2023-01-01T02:11:39.815Z,60.48
2023-01-01T02:14:06.867Z,60.50
2023-01-01T02:16:57.836Z,59.55
2023-01-01T02:19:44.608Z,59.67
2023-01-01T02:22:27.011Z,60.03
2023-01-01T02:25:14.182Z,59.94
2023-01-01T02:27:52.649Z,60.22
2023-01-01T02:30:19.997Z,60.73
2023-01-01T02:32:51.860Z,60.44
2023-01-01T02:35:22.834Z,60.47
2023-01-01T02:37:52.195Z,60.95
2023-01-01T02:40:21.996Z,60.96
2023-01-01T02:42:50.621Z,61.07
2023-01-01T02:45:17.178Z,61.08
2023-01-01T02:47:43.823Z,61.11
2023-01-01T02:50:18.962Z,60.59
2023-01-01T02:52:57.257Z,60.38
2023-01-01T02:55:47.820Z,61.25
2023-01-01T02:58:25.267Z,60.86
2023-01-01T03:00:56.729Z,61.24
2023-01-01T03:03:40.173Z,60.36
2023-01-01T03:06:26.006Z,60.54
2023-01-01T03:09:29.491Z,60.70
2023-01-01T03:12:32.075Z,60.25
2023-01-01T03:15:06.986Z,60.62
2023-01-01T03:17:38.252Z,61.21
2023-01-01T03:20:11.831Z,60.83
2023-01-01T03:25:12.133Z,60.53
2023-01-01T03:27:48.842Z,60.06
2023-01-01T03:30:17.931Z,61.06
2023-01-01T03:32:54.484Z,60.36
2023-01-01T03:35:24.515Z,60.99
2023-01-01T03:37:55.760Z,60.36
2023-01-01T03:40:23.235Z,61.21
2023-01-01T03:42:59.413Z,59.87
2023-01-01T03:45:31.408Z,60.45
2023-01-01T03:47:57.894Z,60.98
2023-01-01T03:50:32.151Z,60.40
2023-01-01T03:53:17.044Z,59.84
2023-01-01T03:55:53.942Z,60.04
2023-01-01T03:58:40.891Z,59.61
2023-01-01T04:01:37.831Z,59.72
2023-01-01T04:04:06.720Z,61.06
2023-01-01T04:06:33.560Z,59.98
2023-01-01T04:09:03.002Z,60.79
2023-01-01T04:11:32.493Z,60.66
2023-01-01T04:14:01.215Z,60.88
2023-01-01T04:16:27.845Z,61.17
2023-01-01T04:18:54.553Z,61.10
2023-01-01T04:21:21.109Z,60.88
2023-01-01T04:23:47.695Z,60.94
2023-01-01T04:26:15.256Z,61.03
2023-01-01T04:28:42.680Z,61.08
2023-01-01T04:31:10.066Z,60.98
2023-01-01T04:33:36.955Z,61.04
2023-01-01T04:36:09.580Z,60.19
2023-01-01T04:38:37.438Z,61.10
2023-01-01T04:41:04.708Z,60.98
2023-01-01T04:43:32.158Z,61.05
2023-01-01T04:46:01.086Z,61.17
2023-01-01T04:48:29.207Z,61.19
2023-01-01T04:51:01.442Z,60.37
2023-01-01T04:53:33.278Z,60.81
2023-01-01T04:56:13.232Z,60.67
2023-01-01T04:58:41.264Z,61.11
2023-01-01T05:01:08.801Z,61.24
2023-01-01T05:03:37.067Z,61.03
2023-01-01T05:06:04.921Z,60.72
2023-01-01T05:08:33.037Z,61.43
2023-01-01T05:11:05.541Z,61.02
2023-01-01T05:13:37.388Z,61.28
2023-01-01T05:16:05.912Z,61.56
2023-01-01T05:18:33.188Z,61.54
2023-01-01T05:21:01.092Z,61.74
2023-01-01T05:23:30.639Z,61.26
2023-01-01T05:25:57.702Z,61.62
2023-01-01T05:28:24.561Z,61.69
2023-01-01T05:30:52.231Z,61.51
2023-01-01T05:33:19.580Z,61.71
2023-01-01T05:35:46.269Z,62.05
2023-01-01T05:38:12.760Z,62.05
2023-01-01T05:40:39.546Z,62.24
2023-01-01T05:43:07.381Z,61.96
2023-01-01T05:45:34.098Z,62.15
2023-01-01T05:48:00.749Z,62.08
2023-01-01T05:50:27.285Z,61.84
2023-01-01T05:52:53.766Z,61.96
2023-01-01T05:55:20.331Z,61.71
2023-01-01T05:57:46.833Z,61.87
2023-01-01T06:00:14.225Z,61.75
2023-01-01T06:02:40.865Z,61.71
2023-01-01T06:05:07.815Z,61.77
2023-01-01T06:07:34.301Z,61.75
2023-01-01T06:10:02.127Z,61.57
2023-01-01T06:12:28.869Z,61.44
2023-01-01T06:14:55.331Z,61.36
2023-01-01T06:17:21.806Z,61.20
2023-01-01T06:19:48.303Z,61.25
2023-01-01T06:22:14.842Z,61.59
2023-01-01T06:24:41.305Z,61.41
2023-01-01T06:27:07.835Z,61.59
2023-01-01T06:29:34.363Z,61.64
2023-01-01T06:32:00.941Z,61.85
2023-01-01T06:34:27.442Z,61.64
2023-01-01T06:36:53.923Z,61.89
2023-01-01T06:39:20.597Z,61.78
2023-01-01T06:41:47.161Z,61.81
2023-01-01T06:44:13.884Z,61.94
2023-01-01T06:46:40.501Z,61.93
2023-01-01T06:49:11.488Z,61.59
2023-01-01T06:51:42.921Z,61.55
2023-01-01T06:54:10.576Z,61.87
2023-01-01T06:56:37.487Z,62.16
2023-01-01T06:59:05.158Z,62.04
2023-01-01T07:01:33.704Z,61.93
2023-01-01T07:04:03.205Z,61.97
2023-01-01T07:06:32.075Z,62.12
2023-01-01T07:08:58.854Z,62.29
2023-01-01T07:11:26.078Z,62.21
2023-01-01T07:13:53.071Z,62.05
2023-01-01T07:16:20.618Z,62.12
2023-01-01T07:18:47.234Z,62.14
2023-01-01T07:21:53.740Z,61.20
2023-01-01T07:24:21.257Z,62.26
2023-01-01T07:26:49.717Z,62.11
2023-01-01T07:29:16.291Z,62.25
2023-01-01T07:31:44.225Z,62.45
2023-01-01T07:34:16.283Z,62.08
2023-01-01T07:36:42.809Z,62.67
2023-01-01T07:39:10.477Z,62.76
2023-01-01T07:41:37.089Z,62.72
2023-01-01T07:44:03.719Z,62.89
2023-01-01T07:46:30.311Z,62.79
2023-01-01T07:48:58.061Z,62.88
2023-01-01T07:51:24.760Z,62.77
2023-01-01T07:53:51.253Z,63.02
2023-01-01T07:56:18.062Z,63.11
2023-01-01T07:58:44.611Z,63.06
2023-01-01T08:01:13.241Z,63.19
2023-01-01T08:03:40.232Z,63.54
2023-01-01T08:06:12.325Z,63.24
2023-01-01T08:08:39.011Z,63.54
2023-01-01T08:11:05.972Z,63.64
2023-01-01T08:13:32.742Z,63.59
2023-01-01T08:15:59.353Z,63.84
2023-01-01T08:18:26.079Z,63.74
2023-01-01T08:20:52.596Z,63.88
2023-01-01T08:23:19.156Z,63.88
2023-01-01T08:25:45.776Z,63.50
2023-01-01T08:28:12.272Z,63.43
2023-01-01T08:30:38.773Z,63.50
2023-01-01T08:33:05.258Z,63.74
2023-01-01T08:35:31.860Z,63.86
2023-01-01T08:37:58.326Z,63.79
2023-01-01T08:40:24.803Z,63.82
2023-01-01T08:42:51.305Z,64.08
2023-01-01T08:45:17.937Z,63.91
2023-01-01T08:47:44.471Z,64.03
2023-01-01T08:50:11.155Z,63.95
2023-01-01T08:52:37.714Z,64.01
2023-01-01T08:55:04.539Z,64.05
2023-01-01T08:57:31.254Z,64.00
2023-01-01T08:59:57.709Z,63.98
2023-01-01T09:02:24.365Z,64.05
2023-01-01T09:04:51.985Z,64.05
2023-01-01T09:07:18.913Z,63.99
2023-01-01T09:09:45.409Z,63.94
2023-01-01T09:12:15.815Z,62.89
2023-01-01T09:14:42.883Z,63.97
2023-01-01T09:17:09.460Z,64.10
2023-01-01T09:19:35.980Z,64.07
2023-01-01T09:22:02.655Z,64.06
2023-01-01T09:24:29.354Z,64.06
2023-01-01T09:26:58.024Z,63.85
2023-01-01T09:29:24.737Z,63.67
2023-01-01T09:31:51.303Z,63.36
2023-01-01T09:34:18.103Z,62.31
2023-01-01T09:36:46.171Z,62.08
2023-01-01T09:39:14.785Z,62.02
2023-01-01T09:42:40.207Z,60.22
2023-01-01T09:45:17.211Z,60.66
2023-01-01T09:47:50.948Z,61.40
2023-01-01T09:50:19.605Z,62.31
2023-01-01T09:52:54.190Z,61.25
2023-01-01T09:55:43.606Z,59.86
2023-01-01T09:58:11.955Z,61.73
2023-01-01T10:00:45.355Z,60.93
2023-01-01T10:03:35.152Z,59.96
2023-01-01T10:06:23.491Z,60.76
2023-01-01T10:09:26.365Z,59.25
2023-01-01T10:11:57.529Z,61.84
2023-01-01T10:14:39.092Z,59.79
2023-01-01T10:17:18.373Z,57.67
2023-01-01T10:19:50.519Z,59.41
2023-01-01T10:22:22.572Z,59.51
2023-01-01T10:25:00.975Z,57.48
2023-01-01T10:27:46.244Z,58.94
2023-01-01T10:30:17.210Z,59.40
2023-01-01T10:32:56.995Z,58.27
2023-01-01T10:35:30.866Z,57.83
2023-01-01T10:38:00.019Z,58.79
2023-01-01T10:40:28.640Z,58.25
2023-01-01T10:43:00.903Z,56.63
2023-01-01T10:45:32.945Z,55.96
2023-01-01T10:48:13.445Z,55.63
2023-01-01T10:50:46.304Z,53.73
2023-01-01T10:53:21.531Z,55.41
2023-01-01T10:55:50.575Z,57.26
2023-01-01T10:58:41.267Z,55.94
2023-01-01T11:01:10.865Z,54.94
2023-01-01T11:03:37.840Z,56.14
2023-01-01T11:06:20.320Z,53.18
2023-01-01T11:08:49.792Z,55.43
2023-01-01T11:11:22.084Z,53.69
2023-01-01T11:13:54.612Z,53.98
2023-01-01T11:16:22.066Z,55.94
2023-01-01T11:18:50.503Z,55.54
2023-01-01T11:21:23.120Z,50.73
2023-01-01T11:24:07.950Z,54.17
2023-01-01T11:26:34.418Z,55.28
2023-01-01T11:29:18.879Z,52.95
2023-01-01T11:31:47.051Z,54.19
2023-01-01T11:34:33.728Z,55.48
2023-01-01T11:37:19.157Z,54.50
2023-01-01T11:39:49.203Z,54.70
2023-01-01T11:42:22.453Z,51.73
2023-01-01T11:44:53.834Z,52.81
2023-01-01T11:47:26.088Z,53.08
2023-01-01T11:50:12.213Z,53.01
2023-01-01T11:52:41.141Z,54.31
2023-01-01T11:55:25.950Z,52.31
2023-01-01T11:58:19.214Z,52.32
2023-01-01T12:00:49.298Z,54.15
2023-01-01T12:03:33.378Z,52.79
2023-01-01T12:06:03.461Z,52.19
2023-01-01T12:08:39.576Z,52.46
2023-01-01T12:11:10.536Z,51.35
2023-01-01T12:13:59.804Z,50.68
2023-01-01T12:16:50.448Z,50.47
2023-01-01T12:19:45.532Z,50.94
2023-01-01T12:22:17.703Z,50.75
2023-01-01T12:24:46.273Z,52.28
2023-01-01T12:27:25.210Z,49.09
2023-01-01T12:29:57.975Z,52.96
2023-01-01T12:32:33.419Z,53.08
2023-01-01T12:35:18.410Z,50.19
2023-01-01T12:38:10.175Z,51.58
2023-01-01T12:40:50.472Z,51.82
2023-01-01T12:44:11.104Z,52.17
2023-01-01T12:46:45.075Z,51.56
2023-01-01T12:49:23.445Z,51.71
2023-01-01T12:52:04.110Z,52.26
2023-01-01T12:55:13.104Z,50.76
2023-01-01T12:57:51.935Z,49.08
2023-01-01T13:00:20.544Z,52.65
2023-01-01T13:03:00.649Z,52.29
2023-01-01T13:05:45.529Z,52.98
2023-01-01T13:08:12.179Z,52.62
2023-01-01T13:10:42.833Z,52.19
2023-01-01T13:13:12.543Z,52.05
2023-01-01T13:15:39.045Z,52.82
2023-01-01T13:18:08.443Z,52.70
2023-01-01T13:20:42.439Z,49.81
2023-01-01T13:23:33.686Z,51.04
2023-01-01T13:26:18.071Z,51.60
2023-01-01T13:28:59.727Z,52.16
2023-01-01T13:31:38.162Z,50.25
2023-01-01T13:34:32.277Z,48.38
2023-01-01T13:37:24.525Z,48.94
2023-01-01T13:40:00.726Z,49.78
2023-01-01T13:42:47.280Z,49.12
2023-01-01T13:45:15.539Z,51.13
2023-01-01T13:48:05.541Z,49.04
2023-01-01T13:50:52.249Z,51.13
2023-01-01T13:53:46.275Z,51.04
2023-01-01T13:56:24.703Z,49.49
2023-01-01T13:59:30.940Z,49.58
2023-01-01T14:02:17.583Z,50.50
2023-01-01T14:04:46.631Z,51.04
2023-01-01T14:10:18.168Z,50.62
2023-01-01T14:12:44.898Z,52.26
2023-01-01T14:15:23.718Z,51.17
2023-01-01T14:17:52.245Z,52.76
2023-01-01T14:20:22.832Z,52.03
2023-01-01T14:22:51.829Z,52.54
2023-01-01T14:25:26.825Z,51.12
2023-01-01T14:27:56.669Z,52.33
2023-01-01T14:30:24.748Z,52.95
2023-01-01T14:32:57.933Z,52.79
2023-01-01T14:35:25.274Z,53.74
2023-01-01T14:37:52.001Z,53.52
2023-01-01T14:40:28.985Z,53.17
2023-01-01T14:43:09.589Z,51.85
2023-01-01T14:45:36.906Z,53.67
2023-01-01T14:48:05.287Z,53.51
2023-01-01T14:50:33.600Z,53.44
2023-01-01T14:53:06.702Z,52.58
2023-01-01T14:55:39.551Z,53.03
2023-01-01T14:58:06.630Z,53.84
2023-01-01T15:00:34.081Z,53.62
2023-01-01T15:03:12.385Z,52.13
2023-01-01T15:05:39.351Z,53.91
2023-01-01T15:08:07.829Z,53.80
2023-01-01T15:10:38.337Z,53.47
2023-01-01T15:13:07.020Z,53.79
2023-01-01T15:15:34.777Z,53.82
2023-01-01T15:18:01.257Z,54.04
2023-01-01T15:20:27.966Z,54.35
2023-01-01T15:22:54.958Z,54.45
2023-01-01T15:25:21.700Z,54.36
2023-01-01T15:27:50.534Z,54.35
2023-01-01T15:30:29.167Z,54.01
2023-01-01T15:32:56.479Z,54.76
2023-01-01T15:35:32.594Z,54.72
2023-01-01T15:38:18.219Z,54.54
2023-01-01T15:40:51.019Z,54.99
2023-01-01T15:43:20.869Z,55.45
2023-01-01T15:46:11.618Z,54.99
2023-01-01T15:48:48.817Z,54.99
2023-01-01T15:51:24.381Z,54.99
2023-01-01T15:54:00.774Z,55.27
2023-01-01T15:56:30.555Z,55.90
2023-01-01T15:59:09.105Z,55.93
2023-01-01T16:01:40.203Z,56.06
2023-01-01T16:04:28.260Z,56.02
2023-01-01T16:06:57.406Z,56.41
2023-01-01T16:09:24.047Z,56.63
2023-01-01T16:11:56.050Z,56.54
2023-01-01T16:14:23.643Z,56.96
2023-01-01T16:16:58.289Z,56.79
2023-01-01T16:19:25.322Z,57.13
2023-01-01T16:21:51.852Z,57.30
2023-01-01T16:24:19.665Z,57.29
2023-01-01T16:26:47.739Z,57.46
2023-01-01T16:29:15.584Z,57.17
2023-01-01T16:31:43.145Z,57.53
2023-01-01T16:34:16.975Z,57.48
2023-01-01T16:36:44.779Z,57.62
2023-01-01T16:39:11.721Z,57.87
2023-01-01T16:41:42.398Z,57.89
2023-01-01T16:44:12.690Z,57.92
2023-01-01T16:46:39.221Z,58.17
2023-01-01T16:49:05.770Z,58.24
2023-01-01T16:51:33.158Z,58.33
2023-01-01T16:54:00.081Z,58.48
2023-01-01T16:56:28.303Z,58.42
2023-01-01T16:59:02.311Z,58.20
2023-01-01T17:01:30.117Z,58.60
2023-01-01T17:03:56.800Z,58.67
2023-01-01T17:06:23.317Z,58.70
2023-01-01T17:08:50.835Z,58.80
2023-01-01T17:11:18.710Z,58.87
2023-01-01T17:13:47.216Z,58.83
2023-01-01T17:16:21.154Z,58.95
2023-01-01T17:21:40.712Z,58.73
2023-01-01T17:24:07.508Z,59.06
2023-01-01T17:26:34.352Z,59.07
2023-01-01T17:29:01.419Z,59.19
2023-01-01T17:31:28.299Z,59.34
2023-01-01T17:33:54.875Z,59.37
2023-01-01T17:36:21.341Z,59.45
2023-01-01T17:38:47.943Z,59.41
2023-01-01T17:41:16.382Z,59.52
2023-01-01T17:43:46.035Z,59.58
2023-01-01T17:46:15.158Z,59.65
2023-01-01T17:48:43.114Z,59.69
2023-01-01T17:51:09.969Z,59.78
2023-01-01T17:53:36.674Z,59.94
2023-01-01T17:56:03.249Z,59.94
2023-01-01T17:58:35.257Z,60.07
2023-01-01T18:01:23.704Z,60.13
2023-01-01T18:04:09.017Z,60.17
2023-01-01T18:06:42.545Z,60.26
2023-01-01T18:09:12.984Z,60.37
2023-01-01T18:11:39.784Z,60.35
2023-01-01T18:14:06.388Z,60.51
2023-01-01T18:16:35.833Z,60.73
2023-01-01T18:19:02.577Z,60.70
2023-01-01T18:21:30.212Z,60.89
2023-01-01T18:23:57.945Z,61.08
2023-01-01T18:26:27.657Z,61.14
2023-01-01T18:28:59.311Z,60.88
2023-01-01T18:31:27.517Z,61.19
2023-01-01T18:33:54.708Z,61.23
2023-01-01T18:36:25.657Z,61.20
2023-01-01T18:39:09.714Z,61.19
2023-01-01T18:41:48.457Z,60.78
2023-01-01T18:44:25.928Z,60.74
2023-01-01T18:47:01.962Z,60.86
2023-01-01T18:49:28.521Z,61.41
2023-01-01T18:52:12.456Z,61.12
2023-01-01T18:54:39.059Z,61.19
2023-01-01T18:57:13.626Z,61.23
2023-01-01T18:59:40.453Z,61.07
2023-01-01T19:02:33.740Z,60.43
2023-01-01T19:05:13.909Z,60.24
2023-01-01T19:07:41.819Z,61.14
2023-01-01T19:10:14.158Z,60.44
2023-01-01T19:12:40.760Z,61.13
2023-01-01T19:15:18.027Z,60.26
2023-01-01T19:17:44.990Z,60.92
2023-01-01T19:20:21.559Z,60.01
2023-01-01T19:22:48.273Z,60.87
2023-01-01T19:25:37.074Z,60.13
2023-01-01T19:28:15.561Z,59.94
2023-01-01T19:30:43.730Z,60.76
2023-01-01T19:33:10.237Z,60.67
2023-01-01T19:35:36.954Z,60.56
2023-01-01T19:38:03.755Z,60.80
2023-01-01T19:40:30.630Z,60.75
2023-01-01T19:42:57.852Z,60.62
2023-01-01T19:45:24.714Z,60.72
2023-01-01T19:47:51.223Z,60.36
2023-01-01T19:50:17.719Z,60.35
2023-01-01T19:52:44.242Z,60.29
2023-01-01T19:55:10.773Z,60.23
2023-01-01T19:57:37.250Z,59.95
2023-01-01T20:00:04.437Z,59.80
2023-01-01T20:02:47.605Z,59.84
2023-01-01T20:05:14.739Z,59.83
2023-01-01T20:07:41.349Z,59.54
2023-01-01T20:10:08.312Z,59.45
2023-01-01T20:12:34.966Z,59.21
2023-01-01T20:15:01.502Z,59.08
2023-01-01T20:17:28.117Z,59.24
2023-01-01T20:19:54.668Z,58.76
2023-01-01T20:22:21.139Z,58.82
2023-01-01T20:24:48.222Z,58.69
2023-01-01T20:27:16.565Z,58.34
2023-01-01T20:29:43.854Z,58.28
2023-01-01T20:32:10.662Z,58.37
2023-01-01T20:34:37.348Z,58.35
2023-01-01T20:37:03.861Z,57.97
2023-01-01T20:39:30.425Z,57.71
2023-01-01T20:41:57.075Z,57.55
2023-01-01T20:44:23.844Z,57.74
2023-01-01T20:46:50.336Z,57.62
2023-01-01T20:49:17.906Z,57.65
2023-01-01T20:51:45.599Z,57.55
2023-01-01T20:54:12.196Z,57.66
2023-01-01T20:56:38.738Z,57.49
2023-01-01T20:59:24.623Z,57.49
2023-01-01T21:01:52.158Z,57.58
2023-01-01T21:04:18.827Z,57.33
2023-01-01T21:06:45.304Z,57.51
2023-01-01T21:09:11.802Z,57.27
2023-01-01T21:11:38.420Z,57.40
2023-01-01T21:14:05.020Z,57.35
2023-01-01T21:16:34.591Z,57.26
2023-01-01T21:19:02.323Z,57.28
2023-01-01T21:21:41.677Z,56.85
2023-01-01T21:24:19.199Z,55.93
2023-01-01T21:26:46.093Z,57.30
2023-01-01T21:29:19.256Z,56.37
2023-01-01T21:31:47.166Z,57.27
2023-01-01T21:34:24.796Z,55.96
2023-01-01T21:36:51.366Z,57.29
2023-01-01T21:39:28.974Z,55.92
2023-01-01T21:42:06.318Z,56.27
2023-01-01T21:44:33.065Z,57.11
2023-01-01T21:47:02.166Z,56.80
2023-01-01T21:49:36.671Z,56.13
2023-01-01T21:52:15.121Z,56.58
2023-01-01T21:54:41.808Z,57.31
2023-01-01T21:57:18.770Z,56.34
2023-01-01T21:59:50.607Z,56.61
2023-01-01T22:02:38.413Z,56.40
2023-01-01T22:05:30.314Z,56.21
2023-01-01T22:07:58.151Z,57.46
2023-01-01T22:10:26.721Z,57.25
2023-01-01T22:12:59.283Z,57.10
2023-01-01T22:15:26.505Z,57.79
2023-01-01T22:18:04.135Z,56.82
2023-01-01T22:20:34.558Z,57.29
2023-01-01T22:23:05.244Z,57.54
2023-01-01T22:25:32.915Z,57.76
2023-01-01T22:28:15.249Z,57.46
2023-01-01T22:30:43.771Z,57.95
2023-01-01T22:33:19.196Z,57.32
2023-01-01T22:35:45.778Z,58.12
2023-01-01T22:38:21.529Z,57.86
2023-01-01T22:40:51.620Z,58.02
2023-01-01T22:43:23.447Z,58.16
2023-01-01T22:45:50.704Z,58.37
2023-01-01T22:48:38.343Z,58.19
2023-01-01T22:51:21.615Z,58.51
2023-01-01T22:53:48.653Z,58.59
2023-01-01T22:56:16.078Z,58.65
2023-01-01T22:58:42.617Z,58.84
2023-01-01T23:01:09.635Z,58.89
2023-01-01T23:03:36.145Z,58.94
2023-01-01T23:06:03.341Z,59.14
2023-01-01T23:08:30.289Z,59.11
2023-01-01T23:10:57.900Z,59.07
2023-01-01T23:13:24.393Z,59.12
2023-01-01T23:15:55.616Z,59.33
2023-01-01T23:18:22.416Z,59.23
2023-01-01T23:20:48.905Z,59.26
2023-01-01T23:23:15.541Z,59.29
2023-01-01T23:25:42.143Z,59.36
2023-01-01T23:28:09.103Z,59.39
2023-01-01T23:30:35.946Z,59.55
2023-01-01T23:33:02.530Z,59.60
2023-01-01T23:35:29.240Z,59.49
2023-01-01T23:37:55.905Z,59.49
2023-01-01T23:40:22.450Z,59.63
2023-01-01T23:42:49.006Z,59.76
2023-01-01T23:45:15.642Z,60.01
2023-01-01T23:47:42.249Z,60.06
2023-01-01T23:50:09.116Z,60.03
2023-01-01T23:52:35.893Z,60.14
2023-01-01T23:55:02.456Z,60.22
2023-01-01T23:57:29.117Z,60.59
2023-01-01T23:59:55.702Z,60.38
